Time;durP1;ratioP1;P1;durP2;ratioP2;P2;SDS_P1;SDS_P2;PMS_P1;PMS_P2;Temp;Humidity;BMP_temperature;BMP_pressure;BME280_temperature;BME280_humidity;BME280_pressure;Samples;Min_cycle;Max_cycle;Signal;HPM_P1;HPM_P2
2022/05/07 00:00:52;;;;;;;20.80;19.07;;;;;;;13.72;95.71;95900.00;4369983;32;20188;-61
2022/05/07 00:03:20;;;;;;;21.47;19.57;;;;;;;13.81;95.56;95902.00;4378647;32;20177;-60
2022/05/07 00:05:45;;;;;;;21.20;19.20;;;;;;;13.79;95.30;95904.94;4393203;32;20208;-60
2022/05/07 00:08:14;;;;;;;20.13;18.20;;;;;;;13.81;95.39;95897.44;4330641;32;20318;-60
2022/05/07 00:10:43;;;;;;;20.97;18.87;;;;;;;13.72;95.54;95889.34;4383031;32;20226;-60
2022/05/07 00:13:09;;;;;;;21.60;19.80;;;;;;;13.76;95.67;95894.88;4383109;32;20304;-60
2022/05/07 00:15:37;;;;;;;21.57;19.67;;;;;;;13.73;96.05;95901.59;4388557;32;20229;-60
2022/05/07 00:18:05;;;;;;;21.33;19.33;;;;;;;13.87;95.43;95893.59;4364038;32;20200;-60
2022/05/07 00:20:33;;;;;;;21.07;19.33;;;;;;;13.84;95.46;95893.41;4367389;32;20233;-60
2022/05/07 00:23:00;;;;;;;22.33;20.23;;;;;;;13.62;97.01;95896.78;4337786;32;20205;-60
2022/05/07 00:25:28;;;;;;;22.90;20.83;;;;;;;13.79;96.39;95890.81;4329665;32;20236;-60
2022/05/07 00:27:58;;;;;;;22.73;20.57;;;;;;;13.70;96.75;95896.88;4344087;32;20216;-61
2022/05/07 00:30:23;;;;;;;22.43;20.33;;;;;;;13.64;97.29;95890.06;4358247;32;20192;-60
2022/05/07 00:32:49;;;;;;;24.57;22.17;;;;;;;13.75;96.82;95882.63;4365257;32;20196;-61
2022/05/07 00:35:16;;;;;;;22.93;20.77;;;;;;;13.68;96.84;95880.38;4369116;32;20211;-60
2022/05/07 00:37:46;;;;;;;24.77;22.37;;;;;;;13.64;97.16;95887.41;4371555;32;20287;-60
2022/05/07 00:40:12;;;;;;;26.57;23.93;;;;;;;13.60;97.73;95878.41;4383434;32;20287;-60
2022/05/07 00:42:42;;;;;;;26.50;24.00;;;;;;;13.46;98.45;95885.66;4359241;32;20212;-60
2022/05/07 00:45:09;;;;;;;28.60;25.63;;;;;;;13.52;98.54;95872.97;4384052;32;20188;-60
2022/05/07 00:47:39;;;;;;;26.57;24.07;;;;;;;13.54;98.32;95882.25;4389966;32;20185;-60
2022/05/07 00:52:52;;;;;;;29.47;26.57;;;;;;;13.53;98.79;95877.22;4379298;32;20219;-61
2022/05/07 00:55:18;;;;;;;28.73;26.07;;;;;;;13.57;98.59;95878.22;4358399;32;20222;-60
2022/05/07 00:57:44;;;;;;;27.57;24.97;;;;;;;13.47;98.82;95870.44;4375623;32;20193;-60
2022/05/07 01:00:10;;;;;;;27.43;24.83;;;;;;;13.49;98.76;95862.94;4367015;32;20342;-60
2022/05/07 01:02:41;;;;;;;28.33;25.73;;;;;;;13.43;99.31;95864.91;4383496;32;20200;-60
2022/05/07 01:05:10;;;;;;;28.97;26.23;;;;;;;13.48;99.35;95864.03;4387923;32;20207;-60
2022/05/07 01:07:40;;;;;;;29.43;26.50;;;;;;;13.43;99.37;95866.78;4389657;32;20185;-60
2022/05/07 01:10:08;;;;;;;28.00;25.40;;;;;;;13.47;99.42;95863.22;4372127;32;20236;-60
2022/05/07 01:12:37;;;;;;;27.17;24.47;;;;;;;13.45;99.18;95870.72;4387182;32;20211;-60
2022/05/07 01:15:06;;;;;;;28.10;25.50;;;;;;;13.38;99.32;95860.47;4399931;32;20191;-60
2022/05/07 01:17:32;;;;;;;27.30;24.77;;;;;;;13.39;99.44;95858.59;4388294;32;20189;-60
2022/05/07 01:19:58;;;;;;;27.20;24.67;;;;;;;13.46;98.82;95852.88;4390211;32;20192;-60
2022/05/07 01:22:30;;;;;;;28.00;25.13;;;;;;;13.38;99.13;95860.47;4363768;32;20227;-61
2022/05/07 01:25:07;;;;;;;27.77;25.23;;;;;;;13.38;99.24;95854.34;4364733;32;20243;-60
2022/05/07 01:27:34;;;;;;;27.20;24.70;;;;;;;13.40;99.22;95857.50;4390849;32;20210;-60
2022/05/07 01:30:01;;;;;;;27.27;24.53;;;;;;;13.47;98.80;95852.56;4378782;32;20210;-60
2022/05/07 01:32:29;;;;;;;27.67;25.07;;;;;;;13.55;97.99;95853.72;4389711;32;20226;-60
2022/05/07 01:34:58;;;;;;;27.90;25.30;;;;;;;13.46;98.29;95856.31;4385556;32;20603;-60
2022/05/07 01:37:25;;;;;;;25.87;23.47;;;;;;;13.50;98.21;95843.19;4374795;32;20192;-60
2022/05/07 01:39:52;;;;;;;27.00;24.40;;;;;;;13.36;98.72;95841.31;4386937;32;20175;-60
2022/05/07 01:42:18;;;;;;;25.13;22.83;;;;;;;13.47;98.43;95843.78;4398778;32;20220;-60
2022/05/07 01:44:44;;;;;;;27.10;24.40;;;;;;;13.59;98.18;95846.72;4355909;32;20206;-60
2022/05/07 01:49:54;;;;;;;26.63;24.23;;;;;;;13.55;98.17;95848.41;4331388;32;20223;-60
2022/05/07 01:52:20;;;;;;;25.97;23.23;;;;;;;13.42;98.82;95844.69;4391511;32;20192;-60
2022/05/07 01:54:46;;;;;;;25.90;23.43;;;;;;;13.51;98.38;95848.19;4386604;32;20199;-60
2022/05/07 01:57:35;;;;;;;25.63;23.10;;;;;;;13.40;98.75;95846.84;4383594;32;20316;-60
2022/05/07 02:00:01;;;;;;;25.13;22.73;;;;;;;13.47;98.48;95844.56;4345273;32;20290;-60
2022/05/07 02:02:27;;;;;;;24.80;22.53;;;;;;;13.50;98.29;95845.84;4378083;32;20216;-60
2022/05/07 02:04:53;;;;;;;26.07;23.67;;;;;;;13.52;98.33;95846.31;4360415;32;20211;-61
2022/05/07 02:07:18;;;;;;;26.33;23.83;;;;;;;13.52;98.25;95849.78;4335424;32;20255;-60
2022/05/07 02:09:45;;;;;;;26.23;23.57;;;;;;;13.51;98.05;95848.19;4394991;32;20204;-60
2022/05/07 02:12:11;;;;;;;25.93;23.57;;;;;;;13.30;99.19;95847.06;4403737;32;20192;-60
2022/05/07 02:14:37;;;;;;;26.17;23.60;;;;;;;13.44;98.81;95847.84;4375652;32;20206;-60
2022/05/07 02:17:03;;;;;;;26.93;24.37;;;;;;;13.41;98.85;95838.56;4391955;32;20211;-60
2022/05/07 02:19:31;;;;;;;26.97;24.33;;;;;;;13.38;99.00;95838.34;4379573;32;20189;-60
2022/05/07 02:21:58;;;;;;;27.43;24.83;;;;;;;13.38;99.19;95838.34;4408275;32;20203;-60
2022/05/07 02:24:23;;;;;;;27.33;24.77;;;;;;;13.38;99.20;95838.34;4380801;32;20214;-60
2022/05/07 02:26:50;;;;;;;27.33;24.63;;;;;;;13.33;99.61;95838.44;4387413;32;20207;-60
2022/05/07 02:29:18;;;;;;;26.27;23.87;;;;;;;13.33;99.31;95843.78;4381855;32;20200;-60
2022/05/07 02:32:03;;;;;;;27.63;25.03;;;;;;;13.42;99.20;95844.69;4367180;32;20253;-60
2022/05/07 02:34:33;;;;;;;26.70;24.30;;;;;;;13.35;99.45;95839.72;4347740;32;20189;-60
2022/05/07 02:37:03;;;;;;;27.07;24.57;;;;;;;13.25;99.87;95831.16;4380328;32;20255;-60
2022/05/07 02:39:30;;;;;;;28.63;26.00;;;;;;;13.27;100.00;95837.00;4375063;32;20200;-60
2022/05/07 02:44:41;;;;;;;26.77;24.07;;;;;;;13.30;100.00;95837.16;4370538;32;20222;-61
2022/05/07 02:47:07;;;;;;;28.57;25.67;;;;;;;13.39;99.89;95837.28;4342909;32;20193;-60
2022/05/07 02:49:35;;;;;;;26.90;24.43;;;;;;;13.43;99.46;95837.47;4383292;32;20196;-60
2022/05/07 02:52:03;;;;;;;29.17;26.47;;;;;;;13.30;99.75;95831.84;4379114;32;20194;-60
2022/05/07 02:54:30;;;;;;;27.53;24.93;;;;;;;13.27;100.00;95831.66;4380507;32;20208;-60
2022/05/07 02:56:57;;;;;;;27.70;25.00;;;;;;;13.29;100.00;95834.81;4360505;32;20232;-60
2022/05/07 02:59:23;;;;;;;29.27;26.37;;;;;;;13.31;100.00;95833.41;4370733;32;20245;-63
2022/05/07 03:01:54;;;;;;;28.97;26.17;;;;;;;13.23;100.00;95831.47;4391214;32;20180;-60
2022/05/07 03:04:20;;;;;;;30.77;27.57;;;;;;;13.27;100.00;95831.66;4372310;32;20188;-60
2022/05/07 03:06:46;;;;;;;32.87;29.53;;;;;;;13.31;100.00;95832.63;4385265;32;20189;-60
2022/05/07 03:09:14;;;;;;;31.23;28.20;;;;;;;13.29;100.00;95830.28;4384904;32;20188;-60
2022/05/07 03:11:40;;;;;;;31.00;28.10;;;;;;;13.27;100.00;95840.44;4365767;32;20195;-60
2022/05/07 03:14:07;;;;;;;32.37;29.17;;;;;;;13.13;100.00;95834.28;4388233;32;20236;-60
2022/05/07 03:16:35;;;;;;;30.27;27.27;;;;;;;13.23;100.00;95833.34;4387782;32;20249;-60
2022/05/07 03:19:02;;;;;;;30.37;27.43;;;;;;;13.25;100.00;95831.97;4392819;32;20181;-60
2022/05/07 03:21:28;;;;;;;30.53;27.63;;;;;;;13.33;100.00;95835.78;4389423;32;20184;-60
2022/05/07 03:23:53;;;;;;;29.27;26.43;;;;;;;13.25;100.00;95839.16;4362148;32;20238;-61
2022/05/07 03:26:21;;;;;;;31.63;28.63;;;;;;;13.17;100.00;95837.19;4375369;32;20185;-60
2022/05/07 03:28:49;;;;;;;31.10;27.87;;;;;;;13.27;100.00;95837.00;4384174;32;20236;-60
2022/05/07 03:31:19;;;;;;;30.80;27.77;;;;;;;13.24;100.00;95826.94;4386952;32;20193;-60
2022/05/07 03:33:49;;;;;;;31.23;28.27;;;;;;;13.29;100.00;95830.28;4370153;32;20195;-60
2022/05/07 03:36:15;;;;;;;30.20;27.10;;;;;;;13.28;100.00;95834.03;4382742;32;20226;-60
2022/05/07 03:38:43;;;;;;;29.13;26.37;;;;;;;13.29;100.00;95834.81;4405353;32;20191;-60
2022/05/07 03:41:10;;;;;;;29.97;27.07;;;;;;;13.27;100.00;95831.66;4372159;32;20203;-60
2022/05/07 03:43:36;;;;;;;30.63;27.70;;;;;;;13.21;100.00;95832.84;4377529;32;20222;-60
2022/05/07 03:46:08;;;;;;;31.43;28.33;;;;;;;13.30;100.00;95833.75;4358500;32;20192;-60
2022/05/07 03:48:38;;;;;;;30.37;27.33;;;;;;;13.23;100.00;95830.69;4369192;32;20220;-60
2022/05/07 03:51:05;;;;;;;30.80;27.90;;;;;;;13.20;100.00;95840.06;4369689;32;20192;-60
2022/05/07 03:53:32;;;;;;;30.80;27.67;;;;;;;13.27;100.00;95834.34;4396322;32;20228;-60
2022/05/07 03:56:12;;;;;;;31.53;28.47;;;;;;;13.34;100.00;95838.16;4395633;32;20207;-60
2022/05/07 03:58:38;;;;;;;31.43;28.43;;;;;;;13.29;100.00;95837.50;4368329;32;20205;-60
2022/05/07 04:01:08;;;;;;;32.17;29.00;;;;;;;13.40;100.00;95830.84;4386521;32;20197;-60
2022/05/07 04:03:36;;;;;;;30.63;27.63;;;;;;;13.37;100.00;95837.56;4390045;32;20207;-60
2022/05/07 04:06:06;;;;;;;30.83;27.87;;;;;;;13.30;100.00;95831.06;4381850;32;20192;-60
2022/05/07 04:08:33;;;;;;;31.17;28.20;;;;;;;13.33;100.00;95838.44;4390306;32;20211;-60
2022/05/07 04:11:01;;;;;;;29.97;27.10;;;;;;;13.31;100.00;95832.63;4356429;32;20207;-60
2022/05/07 04:13:32;;;;;;;31.97;29.00;;;;;;;13.31;100.00;95835.28;4387445;32;20245;-60
2022/05/07 04:16:00;;;;;;;31.20;28.00;;;;;;;13.31;100.00;95836.09;4388598;32;20193;-60
2022/05/07 04:18:29;;;;;;;31.77;28.70;;;;;;;13.34;100.00;95830.16;4390239;32;20206;-60
2022/05/07 04:20:56;;;;;;;31.03;27.93;;;;;;;13.27;100.00;95834.34;4372862;32;20252;-60
2022/05/07 04:23:21;;;;;;;31.40;28.30;;;;;;;13.19;100.00;95835.00;4352345;32;20216;-60
2022/05/07 04:25:48;;;;;;;32.00;28.80;;;;;;;13.15;100.00;95826.00;4366923;32;20215;-60
2022/05/07 04:28:15;;;;;;;31.67;28.57;;;;;;;13.17;100.00;95834.53;4392810;32;20183;-60
2022/05/07 04:30:41;;;;;;;31.93;28.73;;;;;;;13.18;100.00;95838.75;4387932;32;20309;-60
2022/05/07 04:33:11;;;;;;;31.97;28.80;;;;;;;13.22;100.00;95840.53;4389662;32;20207;-60
2022/05/07 04:35:36;;;;;;;31.93;28.73;;;;;;;13.20;100.00;95836.59;4360103;32;20226;-62
2022/05/07 04:38:06;;;;;;;32.57;29.27;;;;;;;13.11;100.00;95841.00;4387255;32;20196;-60
2022/05/07 04:40:34;;;;;;;32.33;29.13;;;;;;;13.15;100.00;95834.81;4383145;32;20265;-60
2022/05/07 04:43:02;;;;;;;31.63;28.53;;;;;;;13.12;100.00;95840.69;4364502;32;20227;-60
2022/05/07 04:45:30;;;;;;;31.50;28.50;;;;;;;13.04;100.00;95838.75;4370521;32;20187;-60
2022/05/07 04:47:56;;;;;;;28.50;25.90;;;;;;;13.12;100.00;95846.03;4384645;32;20207;-60
2022/05/07 04:50:21;;;;;;;28.43;25.63;;;;;;;13.02;100.00;95847.03;4354841;32;20266;-60
2022/05/07 04:52:46;;;;;;;28.53;25.63;;;;;;;13.14;100.00;95851.06;4342713;32;20197;-60
2022/05/07 04:55:13;;;;;;;28.70;25.93;;;;;;;13.05;100.00;95843.78;4361450;32;20336;-60
2022/05/07 04:57:41;;;;;;;27.83;25.10;;;;;;;12.93;100.00;95840.00;4352156;32;20239;-60
2022/05/07 05:00:07;;;;;;;26.03;23.63;;;;;;;13.00;100.00;95851.84;4359743;32;20232;-60
2022/05/07 05:02:34;;;;;;;26.37;23.67;;;;;;;13.02;100.00;95846.22;4352931;32;20196;-60
2022/05/07 05:05:00;;;;;;;24.67;22.33;;;;;;;13.15;100.00;95839.31;4356365;32;20248;-60
2022/05/07 05:07:27;;;;;;;26.30;23.87;;;;;;;13.15;100.00;95849.97;4333015;32;20257;-60
2022/05/07 05:09:52;;;;;;;25.37;22.93;;;;;;;13.22;100.00;95850.41;4367116;32;20263;-60
2022/05/07 05:12:18;;;;;;;25.27;22.97;;;;;;;13.16;100.00;95843.59;4355816;32;20189;-60
2022/05/07 05:17:37;;;;;;;23.47;21.27;;;;;;;13.33;100.00;95857.09;4361887;32;20208;-60
2022/05/07 05:20:06;;;;;;;23.70;21.47;;;;;;;13.33;100.00;95857.09;4360632;32;20192;-60
2022/05/07 05:22:33;;;;;;;22.60;20.50;;;;;;;13.32;100.00;95858.19;4374632;32;20223;-60
2022/05/07 05:25:01;;;;;;;23.53;21.30;;;;;;;13.28;100.00;95859.91;4358047;32;20215;-60
2022/05/07 05:27:27;;;;;;;24.57;22.13;;;;;;;13.26;100.00;95860.19;4336247;32;20247;-60
2022/05/07 05:29:54;;;;;;;23.93;21.63;;;;;;;13.42;100.00;95860.66;4360768;32;20234;-60
2022/05/07 05:32:22;;;;;;;24.07;21.83;;;;;;;13.34;100.00;95864.81;4342100;32;20208;-60
2022/05/07 05:34:53;;;;;;;23.97;21.77;;;;;;;13.36;100.00;95867.19;4345521;32;20212;-60
2022/05/07 05:37:21;;;;;;;22.70;20.43;;;;;;;13.44;100.00;95869.16;4352556;32;20196;-60
2022/05/07 05:39:47;;;;;;;23.07;20.87;;;;;;;13.44;99.69;95866.50;4335790;32;20196;-60
2022/05/07 05:42:13;;;;;;;22.83;20.47;;;;;;;13.40;99.42;95873.50;4331044;32;20297;-60
2022/05/07 05:44:43;;;;;;;24.10;21.90;;;;;;;13.38;100.00;95860.47;4348500;32;20239;-60
2022/05/07 05:47:10;;;;;;;23.03;20.93;;;;;;;13.42;100.00;95871.31;4350891;32;20208;-60
2022/05/07 05:49:39;;;;;;;21.87;19.87;;;;;;;13.47;100.00;95867.78;4365015;32;20245;-60
2022/05/07 05:52:06;;;;;;;19.27;17.47;;;;;;;13.52;100.00;95868.44;4358062;32;20197;-60
2022/05/07 05:54:49;;;;;;;20.63;18.73;;;;;;;13.56;98.80;95872.09;4354210;32;20208;-60
2022/05/07 05:57:17;;;;;;;20.07;18.30;;;;;;;13.53;98.56;95872.69;4350438;32;20267;-60
2022/05/07 05:59:44;;;;;;;19.17;17.37;;;;;;;13.57;98.06;95872.88;4336935;32;20194;-60
2022/05/07 06:02:09;;;;;;;19.43;17.63;;;;;;;13.48;98.00;95870.16;4336055;32;20246;-60
2022/05/07 06:04:34;;;;;;;18.20;16.60;;;;;;;13.52;98.30;95873.78;4361297;32;20194;-60
2022/05/07 06:07:00;;;;;;;19.77;17.73;;;;;;;13.43;97.62;95875.56;4338455;32;20223;-60
2022/05/07 06:09:28;;;;;;;18.50;16.90;;;;;;;13.32;98.57;95874.19;4277561;32;20272;-60
2022/05/07 06:11:57;;;;;;;18.03;16.50;;;;;;;13.37;98.81;95874.88;4310841;32;20200;-60
2022/05/07 06:14:25;;;;;;;18.83;17.13;;;;;;;13.30;98.81;95873.72;4353915;32;20198;-60
2022/05/07 06:16:53;;;;;;;18.03;16.43;;;;;;;13.41;98.45;95875.06;4354732;32;20221;-61
2022/05/07 06:19:19;;;;;;;17.57;15.87;;;;;;;13.42;98.78;95879.31;4366370;32;20184;-60
2022/05/07 06:21:45;;;;;;;18.13;16.53;;;;;;;13.38;98.37;95875.66;4354791;32;20192;-60
2022/05/07 06:29:42;;;;;;;17.57;16.07;;;;;;;13.44;98.24;95874.50;4334100;32;20302;-60
2022/05/07 06:32:07;;;;;;;17.63;16.03;;;;;;;13.45;98.54;95876.06;4335654;32;20201;-60
2022/05/07 06:34:34;;;;;;;18.47;16.67;;;;;;;13.52;98.15;95875.66;4368692;32;20260;-60
2022/05/07 06:37:01;;;;;;;16.63;15.10;;;;;;;13.60;98.41;95873.09;4333881;32;20207;-60
2022/05/07 06:39:27;;;;;;;16.63;15.23;;;;;;;13.59;97.66;95874.16;4359144;32;20240;-60
2022/05/07 06:41:53;;;;;;;16.43;15.03;;;;;;;13.56;97.12;95874.75;4326155;32;20255;-60
2022/05/07 06:44:20;;;;;;;16.87;15.47;;;;;;;13.57;97.30;95884.34;4357329;32;20207;-60
2022/05/07 06:46:45;;;;;;;15.53;14.33;;;;;;;13.62;97.22;95876.25;4323294;32;20198;-60
2022/05/07 06:49:11;;;;;;;16.30;15.00;;;;;;;13.57;96.58;95879.00;4347774;32;20322;-60
2022/05/07 06:51:37;;;;;;;16.97;15.47;;;;;;;13.41;96.93;95883.06;4370704;32;20270;-60
2022/05/07 06:54:04;;;;;;;17.67;16.13;;;;;;;13.48;96.89;95883.47;4357443;32;20257;-60
2022/05/07 06:56:31;;;;;;;16.67;15.37;;;;;;;13.36;97.47;95885.81;4345501;32;20223;-59
2022/05/07 06:58:56;;;;;;;22.20;20.13;;;;;;;13.42;96.90;95887.31;4346747;32;20235;-60
2022/05/07 07:01:24;;;;;;;21.13;19.23;;;;;;;13.39;97.70;95888.69;4361508;32;20273;-60
2022/05/07 07:03:52;;;;;;;18.80;17.20;;;;;;;13.32;98.05;95887.50;4353550;32;20242;-60
2022/05/07 07:06:19;;;;;;;18.87;17.27;;;;;;;13.34;98.36;95882.66;4359290;32;20195;-60
2022/05/07 07:08:44;;;;;;;18.80;17.23;;;;;;;13.32;98.83;95890.16;4367766;32;20226;-60
2022/05/07 07:11:10;;;;;;;19.27;17.57;;;;;;;13.35;98.03;95886.91;4375538;32;20283;-60
2022/05/07 07:13:37;;;;;;;17.53;16.13;;;;;;;13.42;98.25;95882.00;4370975;32;20255;-60
2022/05/07 07:16:07;;;;;;;17.20;15.83;;;;;;;13.43;98.27;95883.56;4364529;32;20264;-60
2022/05/07 07:18:38;;;;;;;17.97;16.47;;;;;;;13.44;97.74;95889.69;4363589;32;20192;-60
2022/05/07 07:21:04;;;;;;;19.17;17.47;;;;;;;13.37;97.80;95890.06;4370888;32;20188;-60
2022/05/07 07:23:31;;;;;;;17.60;16.20;;;;;;;13.34;98.47;95896.78;4361718;32;20189;-60
2022/05/07 07:26:00;;;;;;;18.67;16.97;;;;;;;13.36;98.44;95893.81;4380420;32;20220;-60
2022/05/07 07:28:27;;;;;;;18.23;16.67;;;;;;;13.40;98.48;95894.81;4374983;32;20239;-60
2022/05/07 07:30:52;;;;;;;18.37;16.87;;;;;;;13.38;99.28;95897.78;4370983;32;20172;-60
2022/05/07 07:33:19;;;;;;;19.33;17.67;;;;;;;13.31;98.58;95894.72;4364304;32;20184;-60
2022/05/07 07:35:46;;;;;;;17.57;16.13;;;;;;;13.35;98.84;95890.38;4346647;32;20204;-60
2022/05/07 07:38:13;;;;;;;17.97;16.37;;;;;;;13.23;98.75;95892.75;4386660;32;20181;-60
2022/05/07 07:40:40;;;;;;;19.23;17.53;;;;;;;13.36;98.75;95896.50;4359918;32;20223;-60
2022/05/07 07:43:06;;;;;;;19.27;17.67;;;;;;;13.25;99.87;95900.44;4360251;32;20230;-60
2022/05/07 07:48:17;;;;;;;17.13;15.73;;;;;;;13.35;99.93;95894.91;4350873;32;20207;-60
2022/05/07 07:50:48;;;;;;;17.07;15.67;;;;;;;13.40;99.87;95897.47;4332609;32;20273;-60
2022/05/07 07:53:14;;;;;;;17.23;15.83;;;;;;;13.33;100.00;95895.19;4339676;32;20203;-60
2022/05/07 07:55:40;;;;;;;16.97;15.67;;;;;;;13.25;100.00;95905.78;4311448;32;20193;-60
2022/05/07 07:58:07;;;;;;;17.97;16.47;;;;;;;13.21;100.00;95902.13;4362183;32;20188;-60
2022/05/07 08:00:48;;;;;;;18.50;16.87;;;;;;;13.12;100.00;95906.50;4362659;32;20266;-60
2022/05/07 08:03:18;;;;;;;16.03;14.73;;;;;;;13.09;100.00;95900.69;4336333;32;20207;-60
2022/05/07 08:05:49;;;;;;;16.57;15.20;;;;;;;13.07;100.00;95904.75;4358973;32;20207;-60
2022/05/07 08:13:55;;;;;;;18.73;17.13;;;;;;;13.09;100.00;95916.66;4344024;32;20291;-59
2022/05/07 08:16:22;;;;;;;19.43;17.73;;;;;;;13.02;100.00;95915.50;4374292;32;20196;-60
2022/05/07 08:18:50;;;;;;;20.27;18.43;;;;;;;13.22;100.00;95914.34;4357295;32;20222;-60
2022/05/07 08:21:17;;;;;;;19.77;18.07;;;;;;;13.19;100.00;95914.94;4389482;32;20185;-60
2022/05/07 08:23:44;;;;;;;19.10;17.43;;;;;;;13.23;100.00;95916.72;4376786;32;20207;-60
2022/05/07 08:26:11;;;;;;;18.60;17.10;;;;;;;13.19;100.00;95912.28;4361055;32;20249;-60
2022/05/07 08:28:41;;;;;;;16.87;15.47;;;;;;;13.19;100.00;95917.59;4364852;32;20257;-60
2022/05/07 08:31:10;;;;;;;16.37;15.00;;;;;;;13.18;100.00;95918.69;4377438;32;20255;-60
2022/05/07 08:33:40;;;;;;;16.10;14.90;;;;;;;13.18;100.00;95919.47;4358463;32;20321;-60
2022/05/07 08:36:10;;;;;;;17.80;16.30;;;;;;;13.09;100.00;95918.56;4353192;32;20206;-60
2022/05/07 08:38:35;;;;;;;16.87;15.57;;;;;;;13.12;100.00;95915.28;4362400;32;20185;-60
2022/05/07 08:41:10;;;;;;;15.90;14.70;;;;;;;13.20;100.00;95916.53;4374469;32;20193;-60
2022/05/07 08:43:38;;;;;;;15.93;14.67;;;;;;;13.16;100.00;95921.66;4353366;32;20201;-60
2022/05/07 08:46:16;;;;;;;17.23;15.90;;;;;;;13.07;100.00;95921.53;4382025;32;20238;-60
2022/05/07 08:48:45;;;;;;;16.80;15.40;;;;;;;13.13;100.00;95922.19;4374650;32;20192;-60
2022/05/07 08:51:13;;;;;;;16.93;15.53;;;;;;;13.15;100.00;95929.91;4375911;32;20291;-60
2022/05/07 08:53:40;;;;;;;17.10;15.60;;;;;;;13.17;100.00;95920.56;4371288;32;20220;-60
2022/05/07 08:56:05;;;;;;;17.63;16.20;;;;;;;13.17;100.00;95923.22;4376182;32;20203;-60
2022/05/07 08:58:33;;;;;;;16.53;15.13;;;;;;;13.20;100.00;95921.84;4356877;32;20199;-60
2022/05/07 09:01:00;;;;;;;15.73;14.50;;;;;;;13.23;100.00;95929.25;4364235;32;20260;-60
2022/05/07 09:03:41;;;;;;;15.00;13.70;;;;;;;13.21;100.00;95932.22;4363310;32;20196;-60
2022/05/07 09:06:29;;;;;;;15.63;14.23;;;;;;;13.08;100.00;95924.97;4366770;32;20228;-60
2022/05/07 09:08:57;;;;;;;14.03;12.93;;;;;;;13.08;100.00;95931.09;4370265;32;20244;-60
2022/05/07 09:11:23;;;;;;;14.13;13.03;;;;;;;13.18;100.00;95924.00;4361507;32;20201;-63
2022/05/07 09:14:05;;;;;;;14.33;13.23;;;;;;;13.13;100.00;95932.84;4391314;32;20208;-59
2022/05/07 09:16:42;;;;;;;14.70;13.50;;;;;;;13.10;100.00;95928.09;4376012;32;20200;-60
2022/05/07 09:19:30;;;;;;;14.73;13.60;;;;;;;13.18;100.00;95932.78;4374512;32;20231;-59
2022/05/07 09:22:09;;;;;;;15.43;14.13;;;;;;;13.15;100.00;95932.56;4384961;32;20245;-59
2022/05/07 09:24:35;;;;;;;14.63;13.43;;;;;;;13.20;100.00;95932.50;4372551;32;20184;-59
2022/05/07 09:27:04;;;;;;;14.87;13.47;;;;;;;13.12;100.00;95939.25;4386986;32;20207;-59
2022/05/07 09:29:32;;;;;;;14.23;13.13;;;;;;;13.15;100.00;95932.56;4376203;32;20206;-60
2022/05/07 09:32:16;;;;;;;14.60;13.50;;;;;;;13.12;100.00;95938.47;4369375;32;20184;-60
2022/05/07 09:37:35;;;;;;;14.73;13.53;;;;;;;13.23;100.00;95934.59;4369886;32;20306;-60
2022/05/07 09:40:12;;;;;;;15.23;13.93;;;;;;;13.32;100.00;95935.47;4375208;32;20230;-59
2022/05/07 09:42:39;;;;;;;15.03;13.73;;;;;;;13.35;100.00;95924.22;4358461;32;20254;-59
2022/05/07 09:45:07;;;;;;;13.80;12.70;;;;;;;13.47;100.00;95929.09;4371112;32;20248;-59
2022/05/07 09:47:33;;;;;;;14.27;13.17;;;;;;;13.48;100.00;95931.44;4343611;32;20203;-59
2022/05/07 09:50:20;;;;;;;14.80;13.60;;;;;;;13.53;100.00;95930.53;4366460;32;20236;-59
2022/05/07 09:58:19;;;;;;;15.63;14.27;;;;;;;13.74;100.00;95926.38;4382058;32;20210;-59
2022/05/07 10:01:01;;;;;;;15.10;13.90;;;;;;;13.73;99.68;95922.13;4390207;32;20195;-59
2022/05/07 10:03:54;;;;;;;15.13;13.83;;;;;;;13.75;100.00;95915.41;4358746;32;20233;-59
2022/05/07 10:06:34;;;;;;;14.43;13.27;;;;;;;13.69;99.95;95924.63;4354649;32;20215;-59
2022/05/07 10:09:37;;;;;;;15.73;14.43;;;;;;;13.64;99.81;95915.94;4362840;32;20197;-59
2022/05/07 10:12:03;;;;;;;15.50;14.20;;;;;;;13.65;99.64;95914.84;4375586;32;20200;-59
2022/05/07 10:14:31;;;;;;;14.93;13.67;;;;;;;13.71;99.78;95921.66;4367486;32;20192;-59
2022/05/07 10:17:21;;;;;;;15.60;14.20;;;;;;;13.64;99.09;95908.72;4365770;32;20212;-59
2022/05/07 10:19:50;;;;;;;15.23;14.03;;;;;;;13.58;99.67;95909.13;4367717;32;20223;-59
2022/05/07 10:22:25;;;;;;;17.53;15.90;;;;;;;13.62;99.30;95913.56;4364263;32;20230;-59
2022/05/07 10:25:13;;;;;;;17.23;15.80;;;;;;;13.68;100.00;95917.72;4356069;32;20210;-61
2022/05/07 10:27:44;;;;;;;16.37;15.00;;;;;;;13.74;99.41;95908.50;4368405;32;20200;-59
2022/05/07 10:30:13;;;;;;;16.60;15.10;;;;;;;13.75;99.63;95911.97;4345809;32;20184;-59
2022/05/07 10:32:59;;;;;;;15.17;13.97;;;;;;;13.79;99.54;95904.16;4365915;32;20234;-59
2022/05/07 10:35:47;;;;;;;16.27;14.87;;;;;;;13.69;99.17;95905.19;4357805;32;20192;-60
2022/05/07 10:38:13;;;;;;;16.50;15.10;;;;;;;13.74;99.61;95903.16;4384859;32;20193;-60
2022/05/07 10:40:55;;;;;;;17.90;16.40;;;;;;;13.87;99.55;95900.81;4373537;32;20201;-59
2022/05/07 10:43:29;;;;;;;17.73;16.23;;;;;;;13.93;99.99;95908.37;4363045;32;20204;-61
2022/05/07 10:46:11;;;;;;;15.97;14.63;;;;;;;14.05;98.56;95910.53;4380468;32;20193;-60
2022/05/07 10:48:53;;;;;;;16.73;15.33;;;;;;;14.02;97.66;95911.12;4356076;32;20239;-60
2022/05/07 10:51:37;;;;;;;15.93;14.77;;;;;;;14.09;98.32;95906.97;4379341;32;20225;-60
2022/05/07 10:54:24;;;;;;;15.80;14.53;;;;;;;14.10;97.67;95902.44;4346378;32;20208;-60
2022/05/07 10:56:53;;;;;;;15.80;14.40;;;;;;;14.19;96.72;95910.50;4364329;32;20208;-60
2022/05/07 10:59:21;;;;;;;16.90;15.37;;;;;;;14.01;97.06;95901.56;4361037;32;20204;-60
2022/05/07 11:01:48;;;;;;;15.67;14.47;;;;;;;14.00;98.15;95905.31;4373309;32;20203;-59
2022/05/07 11:04:17;;;;;;;16.40;15.10;;;;;;;14.14;98.09;95897.25;4354201;32;20200;-60
2022/05/07 11:06:48;;;;;;;15.77;14.47;;;;;;;14.07;98.66;95905.69;4365070;32;20196;-59
2022/05/07 11:09:17;;;;;;;14.93;13.73;;;;;;;14.03;98.04;95910.03;4357307;32;20242;-60
2022/05/07 11:11:47;;;;;;;15.23;14.00;;;;;;;13.91;98.37;95907.91;4381771;32;20195;-60
2022/05/07 11:14:26;;;;;;;15.30;14.03;;;;;;;13.91;97.98;95897.25;4377328;32;20237;-59
2022/05/07 11:16:58;;;;;;;15.47;14.27;;;;;;;13.92;98.22;95903.38;4357697;32;20200;-60
2022/05/07 11:19:35;;;;;;;15.83;14.30;;;;;;;13.92;98.88;95895.38;4388362;32;20193;-60
2022/05/07 11:22:23;;;;;;;14.53;13.33;;;;;;;14.01;98.73;95896.22;4353752;32;20180;-60
2022/05/07 11:24:56;;;;;;;16.00;14.60;;;;;;;13.95;98.69;95894.75;4358755;32;20203;-60
2022/05/07 11:27:26;;;;;;;15.37;14.07;;;;;;;14.08;98.71;95893.94;4374954;32;20245;-61
2022/05/07 11:29:53;;;;;;;14.73;13.53;;;;;;;14.07;97.83;95889.69;4355775;32;20185;-59
2022/05/07 11:32:19;;;;;;;15.17;13.87;;;;;;;13.95;97.66;95894.75;4347164;32;20198;-59
2022/05/07 11:34:45;;;;;;;15.93;14.63;;;;;;;14.03;97.06;95897.50;4386637;32;20189;-60
2022/05/07 11:37:15;;;;;;;19.90;18.00;;;;;;;14.04;96.59;95892.94;4356433;32;20298;-61
2022/05/07 11:39:54;;;;;;;13.73;12.63;;;;;;;14.09;97.18;95896.31;4389804;32;20318;-60
2022/05/07 11:42:39;;;;;;;13.93;12.83;;;;;;;14.10;96.77;95889.88;4380316;32;20184;-61
2022/05/07 11:45:35;;;;;;;13.13;12.13;;;;;;;14.11;96.37;95893.34;4362549;32;20199;-60
2022/05/07 11:48:16;;;;;;;13.77;12.67;;;;;;;14.20;95.89;95896.06;4353605;32;20185;-60
2022/05/07 11:51:04;;;;;;;13.40;12.23;;;;;;;14.35;95.82;95899.16;4359866;32;20275;-60
2022/05/07 11:53:38;;;;;;;13.67;12.67;;;;;;;14.37;94.54;95891.66;4380149;32;20220;-59
2022/05/07 11:56:09;;;;;;;13.00;12.10;;;;;;;14.41;94.82;95895.31;4350018;32;20222;-59
2022/05/07 11:58:43;;;;;;;13.23;12.30;;;;;;;14.40;94.48;95888.41;4369440;32;20241;-59